createdAt,value
2022-09-17T00:01:01.818Z,25.74
2022-09-17T00:03:52.533Z,25.73
2022-09-17T00:06:42.407Z,25.74
2022-09-17T00:09:31.529Z,25.74
2022-09-17T00:12:19.987Z,25.74
2022-09-17T00:15:15.409Z,25.75
2022-09-17T00:18:03.823Z,25.73
2022-09-17T00:20:52.293Z,25.75
2022-09-17T00:23:42.133Z,25.75
2022-09-17T00:26:31.834Z,25.71
2022-09-17T00:29:20.383Z,25.67
2022-09-17T00:32:09.686Z,25.65
2022-09-17T00:34:58.101Z,25.64
2022-09-17T00:37:46.570Z,25.64
2022-09-17T00:40:37.263Z,25.67
2022-09-17T00:43:41.912Z,25.58
2022-09-17T00:46:35.192Z,25.61
2022-09-17T00:49:28.012Z,25.57
2022-09-17T00:52:20.229Z,25.64
2022-09-17T00:55:14.047Z,25.57
2022-09-17T00:58:05.693Z,25.57
2022-09-17T01:00:54.227Z,25.58
2022-09-17T01:03:42.821Z,25.55
2022-09-17T01:06:34.582Z,25.54
2022-09-17T01:09:32.926Z,25.46
2022-09-17T01:12:54.216Z,25.49
2022-09-17T01:15:49.607Z,25.47
2022-09-17T01:18:48.964Z,25.45
2022-09-17T01:21:49.724Z,25.44
2022-09-17T01:24:47.696Z,25.44
2022-09-17T01:28:22.067Z,25.44
2022-09-17T01:31:21.804Z,25.45
2022-09-17T01:34:16.771Z,25.40
2022-09-17T01:37:06.647Z,25.38
2022-09-17T01:40:00.852Z,25.38
2022-09-17T01:42:54.210Z,25.42
2022-09-17T01:45:46.669Z,25.44
2022-09-17T01:48:38.545Z,25.39
2022-09-17T01:51:29.176Z,25.39
2022-09-17T01:54:21.005Z,25.42
2022-09-17T01:57:11.883Z,25.36
2022-09-17T02:00:02.980Z,25.31
2022-09-17T02:02:54.185Z,25.35
2022-09-17T02:05:46.250Z,25.33
2022-09-17T02:08:38.951Z,25.32
2022-09-17T02:11:27.656Z,25.33
2022-09-17T02:14:19.320Z,25.28
2022-09-17T02:17:12.474Z,25.34
2022-09-17T02:20:02.140Z,25.30
2022-09-17T02:22:54.302Z,25.26
2022-09-17T02:25:46.845Z,25.25
2022-09-17T02:28:40.253Z,25.24
2022-09-17T02:31:28.765Z,25.25
2022-09-17T02:34:17.883Z,25.27
2022-09-17T02:37:06.930Z,25.28
2022-09-17T02:39:57.410Z,25.31
2022-09-17T02:42:59.223Z,25.32
2022-09-17T02:45:55.253Z,25.25
2022-09-17T02:48:59.994Z,25.25
2022-09-17T02:51:56.585Z,25.25
2022-09-17T02:54:52.447Z,25.29
2022-09-17T02:57:47.602Z,25.22
2022-09-17T03:00:36.246Z,25.16
2022-09-17T03:03:29.145Z,25.21
2022-09-17T03:06:18.125Z,25.18
2022-09-17T03:09:06.635Z,25.17
2022-09-17T03:11:55.027Z,25.22
2022-09-17T03:14:45.015Z,25.22
2022-09-17T03:17:33.485Z,25.25
2022-09-17T03:20:21.901Z,25.22
2022-09-17T03:23:10.464Z,25.21
2022-09-17T03:25:59.457Z,25.26
2022-09-17T03:28:48.204Z,25.23
2022-09-17T03:31:38.123Z,25.19
2022-09-17T03:34:26.534Z,25.16
2022-09-17T03:37:15.015Z,25.14
2022-09-17T03:40:04.060Z,25.18
2022-09-17T03:42:53.586Z,25.15
2022-09-17T03:45:42.051Z,25.15
2022-09-17T03:48:37.021Z,25.16
2022-09-17T03:51:25.441Z,25.17
2022-09-17T03:54:15.171Z,25.16
2022-09-17T03:57:03.572Z,25.17
2022-09-17T03:59:52.052Z,25.12
2022-09-17T04:02:40.838Z,25.12
2022-09-17T04:05:30.697Z,25.12
2022-09-17T04:08:19.344Z,25.12
2022-09-17T04:11:08.562Z,25.15
2022-09-17T04:13:57.067Z,25.16
2022-09-17T04:16:45.510Z,25.25
2022-09-17T04:19:34.321Z,25.29
2022-09-17T04:22:24.344Z,25.30
2022-09-17T04:25:12.854Z,25.36
2022-09-17T04:28:03.762Z,25.41
2022-09-17T04:30:52.394Z,25.40
2022-09-17T04:33:40.858Z,25.39
2022-09-17T04:36:29.706Z,25.43
2022-09-17T04:39:19.607Z,25.48
2022-09-17T04:42:08.377Z,25.47
2022-09-17T04:44:57.963Z,25.56
2022-09-17T04:47:46.495Z,25.62
2022-09-17T04:50:34.961Z,25.67
2022-09-17T04:53:25.747Z,25.69
2022-09-17T04:56:15.536Z,25.70
2022-09-17T04:59:04.236Z,25.71
2022-09-17T05:01:54.189Z,25.72
2022-09-17T05:04:42.656Z,25.72
2022-09-17T05:07:31.781Z,25.72
2022-09-17T05:10:22.522Z,25.65
2022-09-17T05:13:12.332Z,25.47
2022-09-17T05:16:00.997Z,25.44
2022-09-17T05:18:51.618Z,25.47
2022-09-17T05:21:40.140Z,25.47
2022-09-17T05:24:28.616Z,25.47
2022-09-17T05:27:17.187Z,25.48
2022-09-17T05:30:08.599Z,25.47
2022-09-17T05:33:01.594Z,25.48
2022-09-17T05:35:50.411Z,25.51
2022-09-17T05:38:39.277Z,25.50
2022-09-17T05:41:27.769Z,25.51
2022-09-17T05:44:18.188Z,25.50
2022-09-17T05:47:08.266Z,25.54
2022-09-17T05:49:56.862Z,25.56
2022-09-17T05:52:45.248Z,25.61
2022-09-17T05:55:34.903Z,25.60
2022-09-17T05:58:23.643Z,25.58
2022-09-17T06:01:17.068Z,25.58
2022-09-17T06:04:06.890Z,25.53
2022-09-17T06:06:55.309Z,25.54
2022-09-17T06:09:44.139Z,25.55
2022-09-17T06:12:35.442Z,25.50
2022-09-17T06:15:23.892Z,25.49
2022-09-17T06:18:14.474Z,25.46
2022-09-17T06:21:05.560Z,25.49
2022-09-17T06:23:54.238Z,25.48
2022-09-17T06:26:42.641Z,25.46
2022-09-17T06:29:31.133Z,25.43
2022-09-17T06:32:19.607Z,25.45
2022-09-17T06:35:09.294Z,25.40
2022-09-17T06:37:59.281Z,25.37
2022-09-17T06:40:52.349Z,25.33
2022-09-17T06:43:40.820Z,25.37
2022-09-17T06:46:29.291Z,25.32
2022-09-17T06:49:17.867Z,25.30
2022-09-17T06:52:06.656Z,25.28
2022-09-17T06:54:57.528Z,25.27
2022-09-17T06:57:46.209Z,25.22
2022-09-17T07:00:36.005Z,25.23
2022-09-17T07:03:24.476Z,25.22
2022-09-17T07:06:13.520Z,25.26
2022-09-17T07:09:02.223Z,25.26
2022-09-17T07:11:54.417Z,25.27
2022-09-17T07:14:42.840Z,25.24
2022-09-17T07:17:31.478Z,25.25
2022-09-17T07:20:19.914Z,25.27
2022-09-17T07:23:08.705Z,25.30
2022-09-17T07:25:59.467Z,25.30
2022-09-17T07:28:49.435Z,25.26
2022-09-17T07:31:38.918Z,25.28
2022-09-17T07:34:28.098Z,25.27
2022-09-17T07:37:16.595Z,25.26
2022-09-17T07:40:06.489Z,25.29
2022-09-17T07:42:54.942Z,25.29
2022-09-17T07:45:44.700Z,25.32
2022-09-17T07:48:33.799Z,25.32
2022-09-17T07:51:24.030Z,25.30
2022-09-17T07:54:12.462Z,25.31
2022-09-17T07:57:00.960Z,25.35
2022-09-17T07:59:49.470Z,25.31
2022-09-17T08:02:39.323Z,25.34
2022-09-17T08:05:28.522Z,25.34
2022-09-17T08:08:21.150Z,25.32
2022-09-17T08:11:12.330Z,25.37
2022-09-17T08:14:00.946Z,25.34
2022-09-17T08:16:49.555Z,25.32
2022-09-17T08:19:39.347Z,25.33
2022-09-17T08:22:28.185Z,25.31
2022-09-17T08:25:16.761Z,25.33
2022-09-17T08:28:05.187Z,25.33
2022-09-17T08:30:54.224Z,25.33
2022-09-17T08:33:43.140Z,25.32
2022-09-17T08:36:32.931Z,25.29
2022-09-17T08:39:21.323Z,25.31
2022-09-17T08:42:14.261Z,25.27
2022-09-17T08:45:05.863Z,25.27
2022-09-17T08:47:56.377Z,25.27
2022-09-17T08:50:46.980Z,25.25
2022-09-17T08:53:43.666Z,25.24
2022-09-17T08:56:34.232Z,25.26
2022-09-17T08:59:26.925Z,25.28
2022-09-17T09:02:25.676Z,25.28
2022-09-17T09:05:17.075Z,25.27
2022-09-17T09:08:08.616Z,25.23
2022-09-17T09:11:02.164Z,25.24
2022-09-17T09:13:53.203Z,25.23
2022-09-17T09:16:45.137Z,25.25
2022-09-17T09:19:43.119Z,25.24
2022-09-17T09:22:50.886Z,25.25
2022-09-17T09:25:44.311Z,25.23
2022-09-17T09:28:40.843Z,25.22
2022-09-17T09:31:51.709Z,25.26
2022-09-17T09:34:41.042Z,25.21
2022-09-17T09:37:34.124Z,25.19
2022-09-17T09:40:30.232Z,25.17
2022-09-17T09:43:21.859Z,25.16
2022-09-17T09:46:32.358Z,25.16
2022-09-17T09:49:30.841Z,25.17
2022-09-17T09:52:25.755Z,25.20
2022-09-17T09:55:40.566Z,25.22
2022-09-17T09:58:33.624Z,25.28
2022-09-17T10:01:24.653Z,25.33
2022-09-17T10:04:18.447Z,25.39
2022-09-17T10:07:08.488Z,25.48
2022-09-17T10:10:09.855Z,25.55
2022-09-17T10:13:08.547Z,25.63
2022-09-17T10:15:57.602Z,25.66
2022-09-17T10:18:48.342Z,25.71
2022-09-17T10:21:38.042Z,25.68
2022-09-17T10:24:28.905Z,25.64
2022-09-17T10:27:20.139Z,25.62
2022-09-17T10:30:17.014Z,25.61
2022-09-17T10:33:27.633Z,25.61
2022-09-17T10:36:17.422Z,25.60
2022-09-17T10:39:21.737Z,25.63
2022-09-17T10:42:15.392Z,25.65
2022-09-17T10:45:03.931Z,25.69
2022-09-17T10:47:53.017Z,25.70
2022-09-17T10:50:41.514Z,25.71
2022-09-17T10:53:32.735Z,25.77
2022-09-17T10:56:24.642Z,25.72
2022-09-17T10:59:27.131Z,25.73
2022-09-17T11:02:47.666Z,25.71
2022-09-17T11:05:43.439Z,25.70
2022-09-17T11:08:36.455Z,25.68
2022-09-17T11:11:33.757Z,25.64
2022-09-17T11:14:38.024Z,25.65
2022-09-17T11:17:37.002Z,25.68
2022-09-17T11:20:34.530Z,25.64
2022-09-17T11:23:36.190Z,25.59
2022-09-17T11:26:32.423Z,25.59
2022-09-17T11:29:39.187Z,25.60
2022-09-17T11:32:44.505Z,25.62
2022-09-17T11:35:35.184Z,25.61
2022-09-17T11:38:26.598Z,25.62
2022-09-17T11:41:18.092Z,25.65
2022-09-17T11:44:10.297Z,25.64
2022-09-17T11:47:01.577Z,25.67
2022-09-17T11:49:53.621Z,25.64
2022-09-17T11:52:46.191Z,25.61
2022-09-17T11:55:38.587Z,25.59
2022-09-17T11:58:34.236Z,25.60
2022-09-17T12:01:32.026Z,25.61
2022-09-17T12:04:43.867Z,25.63
2022-09-17T12:07:38.013Z,25.63
2022-09-17T12:10:43.057Z,25.62
2022-09-17T12:13:36.922Z,25.63
2022-09-17T12:16:27.729Z,25.65
2022-09-17T12:19:19.903Z,25.64
2022-09-17T12:22:11.737Z,25.66
2022-09-17T12:25:02.086Z,25.66
2022-09-17T12:27:55.234Z,25.67
2022-09-17T12:30:49.134Z,25.65
2022-09-17T12:33:39.506Z,25.68
2022-09-17T12:36:33.501Z,25.72
2022-09-17T12:40:03.461Z,25.74
2022-09-17T12:43:06.410Z,25.74
2022-09-17T12:46:09.351Z,25.71
2022-09-17T12:49:08.355Z,25.77
2022-09-17T12:51:59.103Z,25.74
2022-09-17T12:54:59.382Z,25.71
2022-09-17T12:57:53.663Z,25.72
2022-09-17T13:00:44.417Z,25.68
2022-09-17T13:03:36.524Z,25.67
2022-09-17T13:06:55.278Z,25.65
2022-09-17T13:10:04.863Z,25.66
2022-09-17T13:12:57.406Z,25.64
2022-09-17T13:15:52.743Z,25.64
2022-09-17T13:18:59.284Z,25.64
2022-09-17T13:21:55.626Z,25.62
2022-09-17T13:24:47.395Z,25.59
2022-09-17T13:27:38.672Z,25.54
2022-09-17T13:30:27.351Z,25.55
2022-09-17T13:33:54.529Z,25.55
2022-09-17T13:36:49.752Z,25.55
2022-09-17T13:39:41.812Z,25.54
2022-09-17T13:42:33.070Z,25.55
2022-09-17T13:45:23.280Z,25.54
2022-09-17T13:48:13.529Z,25.59
2022-09-17T13:51:46.037Z,25.57
2022-09-17T13:54:39.929Z,25.61
2022-09-17T13:57:29.130Z,25.62
2022-09-17T14:00:49.638Z,25.69
2022-09-17T14:03:53.631Z,25.71
2022-09-17T14:06:54.506Z,25.71
2022-09-17T14:09:57.178Z,25.73
2022-09-17T14:13:01.602Z,25.79
2022-09-17T14:16:05.391Z,25.82
2022-09-17T14:19:03.581Z,25.94
2022-09-17T14:22:00.805Z,25.97
2022-09-17T14:24:52.439Z,25.83
2022-09-17T14:27:52.005Z,25.80
2022-09-17T14:30:40.529Z,25.76
2022-09-17T14:33:32.042Z,25.62
2022-09-17T14:36:21.962Z,25.59
2022-09-17T14:39:14.452Z,25.43
2022-09-17T14:42:03.169Z,25.33
2022-09-17T14:44:59.819Z,25.17
2022-09-17T14:47:48.384Z,25.11
2022-09-17T14:50:37.316Z,25.15
2022-09-17T14:53:25.980Z,25.13
2022-09-17T14:56:16.911Z,25.02
2022-09-17T14:59:20.208Z,24.99
2022-09-17T15:02:34.618Z,24.85
2022-09-17T15:05:26.644Z,24.97
2022-09-17T15:08:17.359Z,24.98
2022-09-17T15:11:12.039Z,25.02
2022-09-17T15:14:04.321Z,25.00
2022-09-17T15:16:56.322Z,24.91
2022-09-17T15:19:50.230Z,24.94
2022-09-17T15:22:40.862Z,24.84
2022-09-17T15:25:32.328Z,24.89
2022-09-17T15:28:29.699Z,24.95
2022-09-17T15:31:20.769Z,25.04
2022-09-17T15:34:12.322Z,25.09
2022-09-17T15:37:10.725Z,25.13
2022-09-17T15:39:59.280Z,25.15
2022-09-17T15:42:51.312Z,25.19
2022-09-17T15:45:42.178Z,25.20
2022-09-17T15:48:39.617Z,25.24
2022-09-17T15:51:31.393Z,25.25
2022-09-17T15:54:30.984Z,25.28
2022-09-17T15:57:19.420Z,25.31
2022-09-17T16:00:20.115Z,25.35
2022-09-17T16:04:02.962Z,25.39
2022-09-17T16:07:16.630Z,25.44
2022-09-17T16:10:07.061Z,25.45
2022-09-17T16:12:55.449Z,25.47
2022-09-17T16:15:44.034Z,25.48
2022-09-17T16:18:32.545Z,25.53
2022-09-17T16:21:21.410Z,25.56
2022-09-17T16:24:09.779Z,25.62
2022-09-17T16:26:59.555Z,25.58
2022-09-17T16:29:48.439Z,25.65
2022-09-17T16:32:36.854Z,25.66
2022-09-17T16:35:27.443Z,25.63
2022-09-17T16:38:15.852Z,25.61
2022-09-17T16:41:06.430Z,25.58
2022-09-17T16:43:57.345Z,25.59
2022-09-17T16:46:46.054Z,25.58
2022-09-17T16:49:34.556Z,25.60
2022-09-17T16:52:24.006Z,25.61
2022-09-17T16:55:14.464Z,25.62
2022-09-17T16:58:02.995Z,25.64
2022-09-17T17:00:52.823Z,25.63
2022-09-17T17:03:41.757Z,25.66
2022-09-17T17:06:30.357Z,25.74
2022-09-17T17:09:18.921Z,25.72
2022-09-17T17:12:09.141Z,25.79
2022-09-17T17:14:57.675Z,25.81
2022-09-17T17:17:47.548Z,25.89
2022-09-17T17:20:37.313Z,25.95
2022-09-17T17:23:25.790Z,25.99
2022-09-17T17:26:14.428Z,25.98
2022-09-17T17:29:03.551Z,26.03
2022-09-17T17:31:52.119Z,26.04
2022-09-17T17:34:42.042Z,25.99
2022-09-17T17:37:30.720Z,25.99
2022-09-17T17:40:19.231Z,26.00
2022-09-17T17:43:07.721Z,26.06
2022-09-17T17:45:56.127Z,26.03
2022-09-17T17:48:45.317Z,26.02
2022-09-17T17:51:36.240Z,26.02
2022-09-17T17:54:25.191Z,26.01
2022-09-17T17:57:13.761Z,25.98
2022-09-17T18:00:04.071Z,25.96
2022-09-17T18:02:52.785Z,25.98
2022-09-17T18:05:41.444Z,25.96
2022-09-17T18:08:31.213Z,25.96
2022-09-17T18:11:19.756Z,25.97
2022-09-17T18:14:08.179Z,25.97
2022-09-17T18:16:56.688Z,25.95
2022-09-17T18:19:45.116Z,26.00
2022-09-17T18:22:33.819Z,25.98
2022-09-17T18:25:23.655Z,26.02
2022-09-17T18:28:12.109Z,26.06
2022-09-17T18:31:06.205Z,26.07
2022-09-17T18:33:57.614Z,26.01
2022-09-17T18:36:50.993Z,26.02
2022-09-17T18:42:51.045Z,26.07
2022-09-17T18:45:40.020Z,26.04
2022-09-17T18:48:32.046Z,26.04
2022-09-17T18:51:22.894Z,26.04
2022-09-17T18:54:12.907Z,26.03
2022-09-17T18:57:01.423Z,26.06
2022-09-17T18:59:51.275Z,26.03
2022-09-17T19:02:39.940Z,26.05
2022-09-17T19:05:28.464Z,26.02
2022-09-17T19:08:16.907Z,26.03
2022-09-17T19:11:06.156Z,26.02
2022-09-17T19:13:59.641Z,25.98
2022-09-17T19:16:49.404Z,25.98
2022-09-17T19:19:37.827Z,25.99
2022-09-17T19:22:26.354Z,26.02
2022-09-17T19:25:14.934Z,26.00
2022-09-17T19:28:07.523Z,26.00
2022-09-17T19:30:55.928Z,25.98
2022-09-17T19:33:46.633Z,26.00
2022-09-17T19:36:35.194Z,25.97
2022-09-17T19:39:23.672Z,25.99
2022-09-17T19:42:12.098Z,25.99
2022-09-17T19:45:00.535Z,25.97
2022-09-17T19:47:49.013Z,25.96
2022-09-17T19:50:39.118Z,25.96
2022-09-17T19:53:27.567Z,26.00
2022-09-17T19:56:17.520Z,26.02
2022-09-17T19:59:05.968Z,25.98
2022-09-17T20:01:54.445Z,26.02
2022-09-17T20:04:42.913Z,26.01
2022-09-17T20:07:33.735Z,25.96
2022-09-17T20:10:22.189Z,25.94
2022-09-17T20:13:10.836Z,25.92
2022-09-17T20:16:05.031Z,25.92
2022-09-17T20:18:53.477Z,25.91
2022-09-17T20:21:42.080Z,25.93
2022-09-17T20:24:31.870Z,25.94
2022-09-17T20:27:20.299Z,25.96
2022-09-17T20:30:09.757Z,25.96
2022-09-17T20:32:58.264Z,25.95
2022-09-17T20:35:46.661Z,25.92
2022-09-17T20:41:45.341Z,25.96
2022-09-17T20:44:33.796Z,25.97
2022-09-17T20:47:22.255Z,26.00
2022-09-17T20:50:10.866Z,25.99
2022-09-17T20:52:59.313Z,25.99
2022-09-17T20:55:55.473Z,26.00
2022-09-17T20:58:48.877Z,26.00
2022-09-17T21:01:38.192Z,26.00
2022-09-17T21:04:27.874Z,26.01
2022-09-17T21:07:16.502Z,26.06
2022-09-17T21:10:05.358Z,26.03
2022-09-17T21:12:53.930Z,26.07
2022-09-17T21:15:48.970Z,26.04
2022-09-17T21:18:39.825Z,26.03
2022-09-17T21:21:28.860Z,26.02
2022-09-17T21:24:17.730Z,26.02
2022-09-17T21:27:07.278Z,26.00
2022-09-17T21:29:55.792Z,26.02
2022-09-17T21:32:45.573Z,26.03
2022-09-17T21:35:34.806Z,26.01
2022-09-17T21:38:23.252Z,26.01
2022-09-17T21:41:13.291Z,26.01
2022-09-17T21:44:01.974Z,25.99
2022-09-17T21:46:56.712Z,26.00
2022-09-17T21:49:46.608Z,26.01
2022-09-17T21:52:35.917Z,26.02
2022-09-17T21:55:25.409Z,26.05
2022-09-17T21:58:14.091Z,26.02
2022-09-17T22:01:06.838Z,25.97
2022-09-17T22:03:57.528Z,25.99
2022-09-17T22:06:48.051Z,25.94
2022-09-17T22:09:36.510Z,25.93
2022-09-17T22:12:24.997Z,25.94
2022-09-17T22:15:13.353Z,25.91
2022-09-17T22:18:04.284Z,25.88
2022-09-17T22:20:52.991Z,25.87
2022-09-17T22:23:42.867Z,25.83
2022-09-17T22:26:33.319Z,25.84
2022-09-17T22:29:22.923Z,25.88
2022-09-17T22:32:11.317Z,25.84
2022-09-17T22:34:59.788Z,25.83
2022-09-17T22:37:48.300Z,25.83
2022-09-17T22:40:38.590Z,25.83
2022-09-17T22:43:28.099Z,25.82
2022-09-17T22:46:21.078Z,25.78
2022-09-17T22:49:10.921Z,25.83
2022-09-17T22:52:00.319Z,25.81
2022-09-17T22:54:48.769Z,25.81
2022-09-17T22:57:38.625Z,25.82
2022-09-17T23:00:27.088Z,25.82
2022-09-17T23:03:15.663Z,25.83
2022-09-17T23:06:05.754Z,25.84
2022-09-17T23:08:55.624Z,25.82
2022-09-17T23:11:46.599Z,25.82
2022-09-17T23:14:36.521Z,25.80
2022-09-17T23:17:29.290Z,25.81
2022-09-17T23:20:17.969Z,25.81
2022-09-17T23:23:06.659Z,25.82
2022-09-17T23:25:55.627Z,25.77
2022-09-17T23:28:44.299Z,25.77
2022-09-17T23:31:35.684Z,25.82
2022-09-17T23:34:24.264Z,25.77
2022-09-17T23:37:12.705Z,25.79
2022-09-17T23:40:01.423Z,25.75
2022-09-17T23:42:49.894Z,25.75
2022-09-17T23:45:38.657Z,25.73
2022-09-17T23:48:28.498Z,25.76
2022-09-17T23:51:19.794Z,25.74
2022-09-17T23:54:08.411Z,25.72
2022-09-17T23:56:56.891Z,25.70
2022-09-17T23:59:45.381Z,25.72
